sensor_id;sensor_type;location;lat;lon;timestamp;P1;durP1;ratioP1;P2;durP2;ratioP2
73684;SDS011;61985;51.070;14.064;2022-12-11T04:01:32;15.30;;;6.73;;
73684;SDS011;61985;51.070;14.064;2022-12-11T04:03:57;19.20;;;7.17;;
73684;SDS011;61985;51.070;14.064;2022-12-11T04:06:23;15.60;;;6.70;;
73684;SDS011;61985;51.070;14.064;2022-12-11T04:08:49;15.70;;;6.50;;
73684;SDS011;61985;51.070;14.064;2022-12-11T04:11:14;16.37;;;6.10;;
73684;SDS011;61985;51.070;14.064;2022-12-11T04:13:58;17.17;;;6.67;;
73684;SDS011;61985;51.070;14.064;2022-12-11T04:16:43;18.53;;;7.13;;
73684;SDS011;61985;51.070;14.064;2022-12-11T04:19:08;15.07;;;6.40;;
73684;SDS011;61985;51.070;14.064;2022-12-11T04:21:54;15.43;;;7.17;;
73684;SDS011;61985;51.070;14.064;2022-12-11T04:24:38;15.47;;;6.83;;
73684;SDS011;61985;51.070;14.064;2022-12-11T04:27:03;20.30;;;6.37;;
73684;SDS011;61985;51.070;14.064;2022-12-11T04:29:29;13.17;;;5.80;;
73684;SDS011;61985;51.070;14.064;2022-12-11T04:31:54;14.20;;;6.17;;
73684;SDS011;61985;51.070;14.064;2022-12-11T04:34:20;14.30;;;6.07;;
73684;SDS011;61985;51.070;14.064;2022-12-11T04:36:45;11.90;;;6.10;;
73684;SDS011;61985;51.070;14.064;2022-12-11T04:39:10;17.83;;;6.10;;
73684;SDS011;61985;51.070;14.064;2022-12-11T04:41:36;12.47;;;5.50;;
73684;SDS011;61985;51.070;14.064;2022-12-11T04:44:02;18.53;;;5.97;;
73684;SDS011;61985;51.070;14.064;2022-12-11T04:46:28;12.47;;;6.10;;
73684;SDS011;61985;51.070;14.064;2022-12-11T04:48:54;13.50;;;5.97;;
73684;SDS011;61985;51.070;14.064;2022-12-11T04:51:20;13.90;;;5.20;;
73684;SDS011;61985;51.070;14.064;2022-12-11T04:53:46;15.37;;;6.13;;
73684;SDS011;61985;51.070;14.064;2022-12-11T04:56:12;16.13;;;5.73;;
73684;SDS011;61985;51.070;14.064;2022-12-11T04:58:38;11.87;;;5.03;;
73684;SDS011;61985;51.070;14.064;2022-12-11T05:01:08;16.80;;;6.23;;
73684;SDS011;61985;51.070;14.064;2022-12-11T05:03:36;15.32;;;6.28;;
73684;SDS011;61985;51.070;14.064;2022-12-11T05:06:01;13.70;;;5.70;;
73684;SDS011;61985;51.070;14.064;2022-12-11T05:08:27;16.27;;;5.47;;
73684;SDS011;61985;51.070;14.064;2022-12-11T05:10:59;16.23;;;6.23;;
73684;SDS011;61985;51.070;14.064;2022-12-11T05:13:26;13.80;;;6.27;;
73684;SDS011;61985;51.070;14.064;2022-12-11T05:15:52;14.67;;;6.23;;
73684;SDS011;61985;51.070;14.064;2022-12-11T05:18:18;14.83;;;6.37;;
73684;SDS011;61985;51.070;14.064;2022-12-11T05:20:44;17.10;;;7.50;;
73684;SDS011;61985;51.070;14.064;2022-12-11T05:23:09;16.60;;;6.93;;
73684;SDS011;61985;51.070;14.064;2022-12-11T05:25:35;17.50;;;6.90;;
73684;SDS011;61985;51.070;14.064;2022-12-11T05:28:01;16.73;;;7.27;;
73684;SDS011;61985;51.070;14.064;2022-12-11T05:30:26;20.87;;;7.93;;
73684;SDS011;61985;51.070;14.064;2022-12-11T05:32:51;16.33;;;6.93;;
73684;SDS011;61985;51.070;14.064;2022-12-11T05:35:17;18.50;;;7.40;;
73684;SDS011;61985;51.070;14.064;2022-12-11T05:37:42;17.60;;;6.93;;
73684;SDS011;61985;51.070;14.064;2022-12-11T05:40:08;16.90;;;7.30;;
73684;SDS011;61985;51.070;14.064;2022-12-11T05:42:36;17.47;;;7.73;;
73684;SDS011;61985;51.070;14.064;2022-12-11T05:45:02;16.97;;;7.27;;
73684;SDS011;61985;51.070;14.064;2022-12-11T05:47:29;15.53;;;7.60;;
73684;SDS011;61985;51.070;14.064;2022-12-11T05:49:55;21.47;;;8.40;;
73684;SDS011;61985;51.070;14.064;2022-12-11T05:52:20;17.67;;;8.23;;
73684;SDS011;61985;51.070;14.064;2022-12-11T05:54:47;21.63;;;8.90;;
73684;SDS011;61985;51.070;14.064;2022-12-11T05:57:14;19.70;;;8.90;;
73684;SDS011;61985;51.070;14.064;2022-12-11T05:59:40;16.98;;;7.75;;
73684;SDS011;61985;51.070;14.064;2022-12-11T06:02:05;19.93;;;8.27;;
73684;SDS011;61985;51.070;14.064;2022-12-11T06:04:30;20.13;;;8.57;;
73684;SDS011;61985;51.070;14.064;2022-12-11T06:06:56;16.63;;;7.40;;
73684;SDS011;61985;51.070;14.064;2022-12-11T06:09:21;18.63;;;7.83;;
73684;SDS011;61985;51.070;14.064;2022-12-11T06:11:46;20.70;;;9.53;;
73684;SDS011;61985;51.070;14.064;2022-12-11T06:14:12;17.70;;;8.83;;
73684;SDS011;61985;51.070;14.064;2022-12-11T06:16:38;20.77;;;8.30;;
73684;SDS011;61985;51.070;14.064;2022-12-11T06:19:03;17.97;;;8.47;;
73684;SDS011;61985;51.070;14.064;2022-12-11T06:21:29;23.33;;;8.43;;
73684;SDS011;61985;51.070;14.064;2022-12-11T06:23:56;17.83;;;7.70;;
73684;SDS011;61985;51.070;14.064;2022-12-11T06:26:23;19.33;;;7.67;;
73684;SDS011;61985;51.070;14.064;2022-12-11T06:28:50;18.80;;;7.70;;
73684;SDS011;61985;51.070;14.064;2022-12-11T06:31:15;22.73;;;8.47;;
73684;SDS011;61985;51.070;14.064;2022-12-11T06:33:41;20.00;;;8.67;;
73684;SDS011;61985;51.070;14.064;2022-12-11T06:36:08;38.23;;;15.20;;
73684;SDS011;61985;51.070;14.064;2022-12-11T06:38:38;18.17;;;7.80;;
73684;SDS011;61985;51.070;14.064;2022-12-11T06:41:03;16.30;;;8.80;;
73684;SDS011;61985;51.070;14.064;2022-12-11T06:43:31;15.90;;;7.30;;
73684;SDS011;61985;51.070;14.064;2022-12-11T06:45:57;23.30;;;9.07;;
73684;SDS011;61985;51.070;14.064;2022-12-11T06:48:23;21.70;;;8.73;;
73684;SDS011;61985;51.070;14.064;2022-12-11T06:50:48;18.87;;;7.67;;
73684;SDS011;61985;51.070;14.064;2022-12-11T06:53:14;18.77;;;8.53;;
73684;SDS011;61985;51.070;14.064;2022-12-11T06:55:40;19.43;;;8.33;;
73684;SDS011;61985;51.070;14.064;2022-12-11T06:58:06;23.10;;;7.65;;
73684;SDS011;61985;51.070;14.064;2022-12-11T07:00:36;18.70;;;7.70;;
73684;SDS011;61985;51.070;14.064;2022-12-11T07:05:37;18.63;;;8.53;;
73684;SDS011;61985;51.070;14.064;2022-12-11T07:08:03;21.77;;;9.57;;
73684;SDS011;61985;51.070;14.064;2022-12-11T07:10:28;19.30;;;9.13;;
73684;SDS011;61985;51.070;14.064;2022-12-11T07:12:53;18.60;;;9.33;;
73684;SDS011;61985;51.070;14.064;2022-12-11T07:15:19;22.43;;;8.97;;
73684;SDS011;61985;51.070;14.064;2022-12-11T07:17:44;21.50;;;9.03;;
73684;SDS011;61985;51.070;14.064;2022-12-11T07:20:10;17.63;;;7.97;;
73684;SDS011;61985;51.070;14.064;2022-12-11T07:22:35;22.20;;;9.60;;
73684;SDS011;61985;51.070;14.064;2022-12-11T07:25:01;21.17;;;8.13;;
73684;SDS011;61985;51.070;14.064;2022-12-11T07:27:26;20.90;;;9.57;;
73684;SDS011;61985;51.070;14.064;2022-12-11T07:29:55;18.97;;;7.60;;
73684;SDS011;61985;51.070;14.064;2022-12-11T07:32:21;23.60;;;10.07;;
73684;SDS011;61985;51.070;14.064;2022-12-11T07:34:49;29.83;;;12.33;;
73684;SDS011;61985;51.070;14.064;2022-12-11T07:37:15;17.70;;;8.07;;
73684;SDS011;61985;51.070;14.064;2022-12-11T07:39:41;22.30;;;8.97;;
73684;SDS011;61985;51.070;14.064;2022-12-11T07:42:06;21.93;;;10.03;;
73684;SDS011;61985;51.070;14.064;2022-12-11T07:44:31;23.30;;;9.93;;
73684;SDS011;61985;51.070;14.064;2022-12-11T07:46:57;21.60;;;9.37;;
73684;SDS011;61985;51.070;14.064;2022-12-11T07:49:23;34.10;;;16.13;;
73684;SDS011;61985;51.070;14.064;2022-12-11T07:51:49;25.90;;;11.50;;
73684;SDS011;61985;51.070;14.064;2022-12-11T07:54:14;28.73;;;11.57;;
73684;SDS011;61985;51.070;14.064;2022-12-11T07:56:44;33.13;;;15.60;;
73684;SDS011;61985;51.070;14.064;2022-12-11T07:59:10;29.73;;;13.80;;
73684;SDS011;61985;51.070;14.064;2022-12-11T08:01:36;43.70;;;18.07;;
73684;SDS011;61985;51.070;14.064;2022-12-11T08:04:03;54.13;;;21.97;;
73684;SDS011;61985;51.070;14.064;2022-12-11T08:06:31;28.60;;;11.43;;
73684;SDS011;61985;51.070;14.064;2022-12-11T08:08:58;27.37;;;11.40;;
73684;SDS011;61985;51.070;14.064;2022-12-11T08:11:25;27.30;;;12.10;;
73684;SDS011;61985;51.070;14.064;2022-12-11T08:13:51;33.30;;;14.83;;
73684;SDS011;61985;51.070;14.064;2022-12-11T08:16:17;30.90;;;11.67;;
73684;SDS011;61985;51.070;14.064;2022-12-11T08:18:43;31.50;;;12.93;;
73684;SDS011;61985;51.070;14.064;2022-12-11T08:21:10;27.13;;;10.93;;
73684;SDS011;61985;51.070;14.064;2022-12-11T08:23:37;28.70;;;11.70;;
73684;SDS011;61985;51.070;14.064;2022-12-11T08:26:07;24.93;;;10.10;;
73684;SDS011;61985;51.070;14.064;2022-12-11T08:28:35;27.00;;;11.52;;
73684;SDS011;61985;51.070;14.064;2022-12-11T08:31:02;27.87;;;11.87;;
73684;SDS011;61985;51.070;14.064;2022-12-11T08:33:29;26.03;;;11.17;;
73684;SDS011;61985;51.070;14.064;2022-12-11T08:35:55;26.77;;;11.40;;
73684;SDS011;61985;51.070;14.064;2022-12-11T08:38:21;23.97;;;11.80;;
73684;SDS011;61985;51.070;14.064;2022-12-11T08:40:46;23.40;;;10.57;;
73684;SDS011;61985;51.070;14.064;2022-12-11T08:43:11;23.43;;;11.17;;
73684;SDS011;61985;51.070;14.064;2022-12-11T08:45:37;24.93;;;10.37;;
73684;SDS011;61985;51.070;14.064;2022-12-11T08:48:03;27.33;;;12.07;;
73684;SDS011;61985;51.070;14.064;2022-12-11T08:50:28;21.00;;;10.50;;
73684;SDS011;61985;51.070;14.064;2022-12-11T08:52:54;24.83;;;10.83;;
73684;SDS011;61985;51.070;14.064;2022-12-11T08:55:19;24.23;;;10.97;;
73684;SDS011;61985;51.070;14.064;2022-12-11T08:57:46;24.47;;;11.33;;
73684;SDS011;61985;51.070;14.064;2022-12-11T09:00:12;19.83;;;7.93;;
73684;SDS011;61985;51.070;14.064;2022-12-11T09:02:39;22.10;;;8.95;;
73684;SDS011;61985;51.070;14.064;2022-12-11T09:05:04;21.33;;;9.73;;
73684;SDS011;61985;51.070;14.064;2022-12-11T09:07:32;22.87;;;11.57;;
73684;SDS011;61985;51.070;14.064;2022-12-11T09:09:58;26.90;;;11.40;;
73684;SDS011;61985;51.070;14.064;2022-12-11T09:12:23;25.33;;;12.63;;
73684;SDS011;61985;51.070;14.064;2022-12-11T09:14:48;18.40;;;9.13;;
73684;SDS011;61985;51.070;14.064;2022-12-11T09:17:14;22.17;;;11.73;;
73684;SDS011;61985;51.070;14.064;2022-12-11T09:19:39;19.07;;;9.70;;
73684;SDS011;61985;51.070;14.064;2022-12-11T09:22:04;21.43;;;8.30;;
73684;SDS011;61985;51.070;14.064;2022-12-11T09:24:30;18.10;;;8.20;;
73684;SDS011;61985;51.070;14.064;2022-12-11T09:26:55;18.77;;;8.20;;
73684;SDS011;61985;51.070;14.064;2022-12-11T09:29:20;20.53;;;8.13;;
73684;SDS011;61985;51.070;14.064;2022-12-11T09:31:46;20.03;;;7.73;;
73684;SDS011;61985;51.070;14.064;2022-12-11T09:34:13;19.40;;;9.20;;
73684;SDS011;61985;51.070;14.064;2022-12-11T09:36:38;19.03;;;7.83;;
73684;SDS011;61985;51.070;14.064;2022-12-11T09:39:06;16.43;;;6.97;;
73684;SDS011;61985;51.070;14.064;2022-12-11T09:44:18;17.25;;;7.10;;
73684;SDS011;61985;51.070;14.064;2022-12-11T09:46:52;17.07;;;6.73;;
73684;SDS011;61985;51.070;14.064;2022-12-11T09:49:22;18.00;;;7.70;;
73684;SDS011;61985;51.070;14.064;2022-12-11T09:51:57;15.48;;;7.10;;
73684;SDS011;61985;51.070;14.064;2022-12-11T09:54:27;18.33;;;8.33;;
73684;SDS011;61985;51.070;14.064;2022-12-11T09:56:59;16.35;;;7.65;;
73684;SDS011;61985;51.070;14.064;2022-12-11T10:05:27;16.63;;;7.30;;
73684;SDS011;61985;51.070;14.064;2022-12-11T10:10:43;18.85;;;8.57;;
73684;SDS011;61985;51.070;14.064;2022-12-11T10:13:33;17.27;;;7.72;;
73684;SDS011;61985;51.070;14.064;2022-12-11T10:16:27;14.65;;;7.72;;
73684;SDS011;61985;51.070;14.064;2022-12-11T10:19:00;15.00;;;6.63;;
73684;SDS011;61985;51.070;14.064;2022-12-11T10:21:27;19.00;;;8.07;;
73684;SDS011;61985;51.070;14.064;2022-12-11T10:24:01;17.30;;;7.50;;
73684;SDS011;61985;51.070;14.064;2022-12-11T10:26:29;19.83;;;6.40;;
73684;SDS011;61985;51.070;14.064;2022-12-11T10:28:57;15.45;;;6.47;;
73684;SDS011;61985;51.070;14.064;2022-12-11T10:34:14;14.75;;;7.05;;
73684;SDS011;61985;51.070;14.064;2022-12-11T10:36:46;17.13;;;7.68;;
73684;SDS011;61985;51.070;14.064;2022-12-11T10:39:13;15.25;;;7.35;;
73684;SDS011;61985;51.070;14.064;2022-12-11T10:41:41;17.30;;;6.20;;
73684;SDS011;61985;51.070;14.064;2022-12-11T10:44:13;13.20;;;6.43;;
73684;SDS011;61985;51.070;14.064;2022-12-11T10:47:31;16.25;;;7.18;;
73684;SDS011;61985;51.070;14.064;2022-12-11T10:49:36;13.77;;;6.32;;
73684;SDS011;61985;51.070;14.064;2022-12-11T10:52:09;12.55;;;6.43;;
73684;SDS011;61985;51.070;14.064;2022-12-11T10:54:43;15.40;;;6.72;;
73684;SDS011;61985;51.070;14.064;2022-12-11T10:57:12;18.00;;;7.10;;
73684;SDS011;61985;51.070;14.064;2022-12-11T11:04:56;16.52;;;6.82;;
73684;SDS011;61985;51.070;14.064;2022-12-11T11:07:24;17.73;;;7.45;;
73684;SDS011;61985;51.070;14.064;2022-12-11T11:15:27;18.40;;;8.18;;
73684;SDS011;61985;51.070;14.064;2022-12-11T11:17:56;17.60;;;7.38;;
73684;SDS011;61985;51.070;14.064;2022-12-11T11:20:29;18.45;;;8.35;;
73684;SDS011;61985;51.070;14.064;2022-12-11T11:23:02;17.27;;;8.20;;
73684;SDS011;61985;51.070;14.064;2022-12-11T11:25:38;20.70;;;9.27;;
73684;SDS011;61985;51.070;14.064;2022-12-11T11:28:05;18.60;;;8.43;;
73684;SDS011;61985;51.070;14.064;2022-12-11T11:30:36;23.40;;;8.95;;
73684;SDS011;61985;51.070;14.064;2022-12-11T11:33:04;18.50;;;8.23;;
73684;SDS011;61985;51.070;14.064;2022-12-11T11:35:35;16.27;;;8.15;;
73684;SDS011;61985;51.070;14.064;2022-12-11T11:38:02;15.90;;;8.02;;
73684;SDS011;61985;51.070;14.064;2022-12-11T11:43:47;16.83;;;8.18;;
73684;SDS011;61985;51.070;14.064;2022-12-11T11:48:48;15.65;;;7.10;;
73684;SDS011;61985;51.070;14.064;2022-12-11T11:51:40;15.95;;;7.50;;
73684;SDS011;61985;51.070;14.064;2022-12-11T11:56:54;17.15;;;8.10;;
73684;SDS011;61985;51.070;14.064;2022-12-11T11:59:26;19.75;;;8.38;;
73684;SDS011;61985;51.070;14.064;2022-12-11T12:02:08;19.60;;;8.27;;
73684;SDS011;61985;51.070;14.064;2022-12-11T12:04:38;20.58;;;8.13;;
73684;SDS011;61985;51.070;14.064;2022-12-11T12:15:14;17.02;;;8.90;;
73684;SDS011;61985;51.070;14.064;2022-12-11T12:25:44;15.55;;;7.10;;
73684;SDS011;61985;51.070;14.064;2022-12-11T12:28:21;19.48;;;8.40;;
73684;SDS011;61985;51.070;14.064;2022-12-11T12:31:34;15.73;;;7.63;;
73684;SDS011;61985;51.070;14.064;2022-12-11T12:33:52;14.38;;;7.05;;
73684;SDS011;61985;51.070;14.064;2022-12-11T12:36:56;15.40;;;7.57;;
73684;SDS011;61985;51.070;14.064;2022-12-11T12:45:06;17.67;;;7.72;;
73684;SDS011;61985;51.070;14.064;2022-12-11T12:47:42;16.45;;;6.95;;
73684;SDS011;61985;51.070;14.064;2022-12-11T12:50:11;16.08;;;6.55;;
73684;SDS011;61985;51.070;14.064;2022-12-11T12:52:41;18.85;;;7.97;;
73684;SDS011;61985;51.070;14.064;2022-12-11T12:57:50;16.20;;;7.43;;
73684;SDS011;61985;51.070;14.064;2022-12-11T13:00:40;14.50;;;7.28;;
73684;SDS011;61985;51.070;14.064;2022-12-11T13:03:15;13.65;;;6.65;;
73684;SDS011;61985;51.070;14.064;2022-12-11T13:05:45;16.58;;;6.95;;
73684;SDS011;61985;51.070;14.064;2022-12-11T13:08:26;16.05;;;7.07;;
73684;SDS011;61985;51.070;14.064;2022-12-11T13:10:59;19.40;;;8.88;;
73684;SDS011;61985;51.070;14.064;2022-12-11T13:13:32;15.88;;;7.63;;
73684;SDS011;61985;51.070;14.064;2022-12-11T13:16:22;16.83;;;7.20;;
73684;SDS011;61985;51.070;14.064;2022-12-11T13:18:50;15.90;;;6.85;;
73684;SDS011;61985;51.070;14.064;2022-12-11T13:23:53;16.08;;;6.30;;
73684;SDS011;61985;51.070;14.064;2022-12-11T13:26:28;13.20;;;6.03;;
73684;SDS011;61985;51.070;14.064;2022-12-11T13:28:55;13.93;;;6.05;;
73684;SDS011;61985;51.070;14.064;2022-12-11T13:31:25;13.10;;;6.68;;
73684;SDS011;61985;51.070;14.064;2022-12-11T13:33:56;12.40;;;5.55;;
73684;SDS011;61985;51.070;14.064;2022-12-11T13:36:31;15.85;;;6.30;;
73684;SDS011;61985;51.070;14.064;2022-12-11T13:38:59;14.70;;;6.70;;
73684;SDS011;61985;51.070;14.064;2022-12-11T13:41:28;14.70;;;6.63;;
73684;SDS011;61985;51.070;14.064;2022-12-11T13:43:57;17.40;;;6.80;;
73684;SDS011;61985;51.070;14.064;2022-12-11T13:46:25;14.48;;;7.38;;
73684;SDS011;61985;51.070;14.064;2022-12-11T13:48:53;14.45;;;6.43;;
73684;SDS011;61985;51.070;14.064;2022-12-11T13:51:25;13.55;;;6.85;;
73684;SDS011;61985;51.070;14.064;2022-12-11T13:54:04;15.98;;;7.50;;
73684;SDS011;61985;51.070;14.064;2022-12-11T13:56:36;14.98;;;7.38;;
73684;SDS011;61985;51.070;14.064;2022-12-11T13:59:02;20.08;;;9.48;;
73684;SDS011;61985;51.070;14.064;2022-12-11T14:01:28;17.33;;;7.57;;
73684;SDS011;61985;51.070;14.064;2022-12-11T14:06:31;18.83;;;7.47;;
73684;SDS011;61985;51.070;14.064;2022-12-11T14:08:59;16.10;;;7.15;;
73684;SDS011;61985;51.070;14.064;2022-12-11T14:11:31;15.97;;;6.97;;
73684;SDS011;61985;51.070;14.064;2022-12-11T14:14:00;14.45;;;7.03;;
73684;SDS011;61985;51.070;14.064;2022-12-11T14:16:28;15.48;;;7.60;;
73684;SDS011;61985;51.070;14.064;2022-12-11T14:18:56;14.97;;;6.97;;
73684;SDS011;61985;51.070;14.064;2022-12-11T14:21:27;16.48;;;7.75;;
73684;SDS011;61985;51.070;14.064;2022-12-11T14:23:54;17.50;;;7.37;;
73684;SDS011;61985;51.070;14.064;2022-12-11T14:26:34;16.23;;;7.40;;
73684;SDS011;61985;51.070;14.064;2022-12-11T14:29:02;15.13;;;7.90;;
73684;SDS011;61985;51.070;14.064;2022-12-11T14:31:39;18.80;;;8.43;;
73684;SDS011;61985;51.070;14.064;2022-12-11T14:34:14;20.97;;;9.53;;
73684;SDS011;61985;51.070;14.064;2022-12-11T14:36:42;37.40;;;17.20;;
73684;SDS011;61985;51.070;14.064;2022-12-11T14:39:11;19.63;;;9.37;;
73684;SDS011;61985;51.070;14.064;2022-12-11T14:41:47;18.43;;;8.13;;
73684;SDS011;61985;51.070;14.064;2022-12-11T14:44:25;22.77;;;7.50;;
73684;SDS011;61985;51.070;14.064;2022-12-11T14:46:53;16.70;;;7.33;;
73684;SDS011;61985;51.070;14.064;2022-12-11T14:51:56;15.37;;;8.60;;
73684;SDS011;61985;51.070;14.064;2022-12-11T14:54:32;19.87;;;10.17;;
73684;SDS011;61985;51.070;14.064;2022-12-11T14:57:03;17.95;;;9.10;;
73684;SDS011;61985;51.070;14.064;2022-12-11T14:59:30;20.57;;;8.97;;
73684;SDS011;61985;51.070;14.064;2022-12-11T15:02:16;22.40;;;9.77;;
73684;SDS011;61985;51.070;14.064;2022-12-11T15:07:36;20.67;;;9.13;;
73684;SDS011;61985;51.070;14.064;2022-12-11T15:10:02;18.07;;;8.13;;
73684;SDS011;61985;51.070;14.064;2022-12-11T15:12:28;17.23;;;7.67;;
73684;SDS011;61985;51.070;14.064;2022-12-11T15:14:55;19.93;;;8.87;;
73684;SDS011;61985;51.070;14.064;2022-12-11T15:17:24;15.97;;;7.50;;
73684;SDS011;61985;51.070;14.064;2022-12-11T15:19:52;17.27;;;8.37;;
73684;SDS011;61985;51.070;14.064;2022-12-11T15:22:21;17.57;;;8.37;;
73684;SDS011;61985;51.070;14.064;2022-12-11T15:24:49;16.40;;;9.17;;
73684;SDS011;61985;51.070;14.064;2022-12-11T15:30:19;16.13;;;7.30;;
73684;SDS011;61985;51.070;14.064;2022-12-11T15:35:33;18.67;;;7.37;;
73684;SDS011;61985;51.070;14.064;2022-12-11T15:37:58;24.73;;;11.83;;
73684;SDS011;61985;51.070;14.064;2022-12-11T15:40:24;17.60;;;9.00;;
73684;SDS011;61985;51.070;14.064;2022-12-11T15:42:50;15.37;;;7.40;;
73684;SDS011;61985;51.070;14.064;2022-12-11T15:45:20;15.50;;;7.80;;
73684;SDS011;61985;51.070;14.064;2022-12-11T15:47:47;17.33;;;7.68;;
73684;SDS011;61985;51.070;14.064;2022-12-11T15:52:43;19.43;;;8.60;;
73684;SDS011;61985;51.070;14.064;2022-12-11T15:55:09;18.37;;;8.20;;
73684;SDS011;61985;51.070;14.064;2022-12-11T15:57:35;17.20;;;8.20;;
73684;SDS011;61985;51.070;14.064;2022-12-11T16:00:01;17.47;;;7.70;;
73684;SDS011;61985;51.070;14.064;2022-12-11T16:02:27;14.57;;;6.33;;
73684;SDS011;61985;51.070;14.064;2022-12-11T16:04:53;16.90;;;8.20;;
73684;SDS011;61985;51.070;14.064;2022-12-11T16:07:19;13.37;;;5.80;;
73684;SDS011;61985;51.070;14.064;2022-12-11T16:09:46;18.27;;;7.33;;
73684;SDS011;61985;51.070;14.064;2022-12-11T16:12:12;17.30;;;7.20;;
73684;SDS011;61985;51.070;14.064;2022-12-11T16:14:38;14.57;;;6.80;;
73684;SDS011;61985;51.070;14.064;2022-12-11T16:17:05;17.30;;;7.80;;
73684;SDS011;61985;51.070;14.064;2022-12-11T16:19:31;17.00;;;7.73;;
73684;SDS011;61985;51.070;14.064;2022-12-11T16:21:57;19.50;;;8.23;;
73684;SDS011;61985;51.070;14.064;2022-12-11T16:24:22;20.03;;;7.77;;
73684;SDS011;61985;51.070;14.064;2022-12-11T16:26:48;20.13;;;8.13;;
73684;SDS011;61985;51.070;14.064;2022-12-11T16:29:13;16.40;;;7.60;;
73684;SDS011;61985;51.070;14.064;2022-12-11T16:31:39;15.00;;;7.13;;
73684;SDS011;61985;51.070;14.064;2022-12-11T16:34:04;20.07;;;7.87;;
73684;SDS011;61985;51.070;14.064;2022-12-11T16:36:29;19.53;;;8.07;;
73684;SDS011;61985;51.070;14.064;2022-12-11T16:38:55;19.20;;;8.53;;
73684;SDS011;61985;51.070;14.064;2022-12-11T16:41:21;19.90;;;8.20;;
73684;SDS011;61985;51.070;14.064;2022-12-11T16:43:52;18.40;;;7.32;;
73684;SDS011;61985;51.070;14.064;2022-12-11T16:46:18;19.37;;;8.37;;
73684;SDS011;61985;51.070;14.064;2022-12-11T16:48:46;15.33;;;7.50;;
73684;SDS011;61985;51.070;14.064;2022-12-11T16:51:11;17.83;;;8.37;;
73684;SDS011;61985;51.070;14.064;2022-12-11T16:53:37;18.93;;;8.90;;
73684;SDS011;61985;51.070;14.064;2022-12-11T16:56:05;20.63;;;8.10;;
73684;SDS011;61985;51.070;14.064;2022-12-11T16:58:31;18.20;;;7.80;;
73684;SDS011;61985;51.070;14.064;2022-12-11T17:00:56;19.60;;;8.33;;
73684;SDS011;61985;51.070;14.064;2022-12-11T17:03:25;15.90;;;7.30;;
73684;SDS011;61985;51.070;14.064;2022-12-11T17:05:54;15.93;;;7.20;;
73684;SDS011;61985;51.070;14.064;2022-12-11T17:08:20;15.87;;;7.20;;
73684;SDS011;61985;51.070;14.064;2022-12-11T17:10:46;19.87;;;7.77;;
73684;SDS011;61985;51.070;14.064;2022-12-11T17:13:11;18.90;;;8.00;;
73684;SDS011;61985;51.070;14.064;2022-12-11T17:15:40;15.80;;;7.10;;
73684;SDS011;61985;51.070;14.064;2022-12-11T17:18:06;15.60;;;6.50;;
73684;SDS011;61985;51.070;14.064;2022-12-11T17:20:31;18.70;;;7.33;;
73684;SDS011;61985;51.070;14.064;2022-12-11T17:22:57;16.17;;;7.00;;
73684;SDS011;61985;51.070;14.064;2022-12-11T17:25:22;10.43;;;4.90;;
73684;SDS011;61985;51.070;14.064;2022-12-11T17:27:48;16.63;;;6.77;;
73684;SDS011;61985;51.070;14.064;2022-12-11T17:30:13;11.33;;;5.20;;
73684;SDS011;61985;51.070;14.064;2022-12-11T17:32:39;13.03;;;6.60;;
73684;SDS011;61985;51.070;14.064;2022-12-11T17:35:04;9.33;;;4.93;;
73684;SDS011;61985;51.070;14.064;2022-12-11T17:37:30;12.80;;;4.47;;
73684;SDS011;61985;51.070;14.064;2022-12-11T17:39:56;12.00;;;4.63;;
73684;SDS011;61985;51.070;14.064;2022-12-11T17:42:21;10.40;;;4.67;;
73684;SDS011;61985;51.070;14.064;2022-12-11T17:44:46;7.00;;;3.43;;
73684;SDS011;61985;51.070;14.064;2022-12-11T17:47:12;9.50;;;4.57;;
73684;SDS011;61985;51.070;14.064;2022-12-11T17:49:38;9.00;;;4.07;;
73684;SDS011;61985;51.070;14.064;2022-12-11T17:52:04;14.00;;;5.77;;
73684;SDS011;61985;51.070;14.064;2022-12-11T17:54:30;14.83;;;5.63;;
73684;SDS011;61985;51.070;14.064;2022-12-11T17:56:55;11.77;;;5.20;;
73684;SDS011;61985;51.070;14.064;2022-12-11T17:59:20;11.50;;;4.73;;
73684;SDS011;61985;51.070;14.064;2022-12-11T18:01:46;11.57;;;4.90;;
73684;SDS011;61985;51.070;14.064;2022-12-11T18:04:11;12.37;;;5.43;;
73684;SDS011;61985;51.070;14.064;2022-12-11T18:06:37;12.33;;;5.70;;
73684;SDS011;61985;51.070;14.064;2022-12-11T18:09:02;12.07;;;5.33;;
73684;SDS011;61985;51.070;14.064;2022-12-11T18:11:28;11.07;;;4.80;;
73684;SDS011;61985;51.070;14.064;2022-12-11T18:13:53;12.53;;;5.77;;
73684;SDS011;61985;51.070;14.064;2022-12-11T18:16:20;16.57;;;5.57;;
73684;SDS011;61985;51.070;14.064;2022-12-11T18:18:54;16.33;;;7.20;;
73684;SDS011;61985;51.070;14.064;2022-12-11T18:21:21;18.17;;;7.93;;
73684;SDS011;61985;51.070;14.064;2022-12-11T18:23:49;25.87;;;11.37;;
73684;SDS011;61985;51.070;14.064;2022-12-11T18:26:16;16.67;;;7.97;;
73684;SDS011;61985;51.070;14.064;2022-12-11T18:28:43;20.17;;;9.27;;
73684;SDS011;61985;51.070;14.064;2022-12-11T18:31:09;21.23;;;9.57;;
73684;SDS011;61985;51.070;14.064;2022-12-11T18:33:35;20.77;;;7.93;;
73684;SDS011;61985;51.070;14.064;2022-12-11T18:36:02;17.87;;;7.57;;
73684;SDS011;61985;51.070;14.064;2022-12-11T18:38:28;18.20;;;8.37;;
73684;SDS011;61985;51.070;14.064;2022-12-11T18:40:54;24.80;;;10.93;;
73684;SDS011;61985;51.070;14.064;2022-12-11T18:43:19;20.27;;;9.63;;
73684;SDS011;61985;51.070;14.064;2022-12-11T18:45:44;23.73;;;10.37;;
73684;SDS011;61985;51.070;14.064;2022-12-11T18:48:10;23.33;;;10.20;;
73684;SDS011;61985;51.070;14.064;2022-12-11T18:50:36;20.73;;;9.33;;
73684;SDS011;61985;51.070;14.064;2022-12-11T18:53:01;28.10;;;14.97;;
73684;SDS011;61985;51.070;14.064;2022-12-11T18:55:27;21.13;;;10.80;;
73684;SDS011;61985;51.070;14.064;2022-12-11T18:57:53;35.53;;;16.67;;
73684;SDS011;61985;51.070;14.064;2022-12-11T19:00:18;43.63;;;19.20;;
73684;SDS011;61985;51.070;14.064;2022-12-11T19:02:46;26.67;;;12.73;;
73684;SDS011;61985;51.070;14.064;2022-12-11T19:05:15;21.07;;;9.93;;
73684;SDS011;61985;51.070;14.064;2022-12-11T19:07:40;16.43;;;7.37;;
73684;SDS011;61985;51.070;14.064;2022-12-11T19:10:06;16.63;;;7.30;;
73684;SDS011;61985;51.070;14.064;2022-12-11T19:12:31;15.37;;;7.30;;
73684;SDS011;61985;51.070;14.064;2022-12-11T19:14:58;14.70;;;6.23;;
73684;SDS011;61985;51.070;14.064;2022-12-11T19:17:23;17.97;;;7.17;;
73684;SDS011;61985;51.070;14.064;2022-12-11T19:19:48;13.77;;;7.03;;
73684;SDS011;61985;51.070;14.064;2022-12-11T19:22:14;14.63;;;6.90;;
73684;SDS011;61985;51.070;14.064;2022-12-11T19:24:39;16.27;;;7.13;;
73684;SDS011;61985;51.070;14.064;2022-12-11T19:27:05;15.17;;;6.47;;
73684;SDS011;61985;51.070;14.064;2022-12-11T19:29:30;14.87;;;6.97;;
73684;SDS011;61985;51.070;14.064;2022-12-11T19:31:57;14.60;;;7.23;;
73684;SDS011;61985;51.070;14.064;2022-12-11T19:34:26;14.30;;;6.70;;
73684;SDS011;61985;51.070;14.064;2022-12-11T19:39:27;17.53;;;7.67;;
73684;SDS011;61985;51.070;14.064;2022-12-11T19:41:55;17.47;;;8.23;;
73684;SDS011;61985;51.070;14.064;2022-12-11T19:44:20;20.57;;;7.80;;
73684;SDS011;61985;51.070;14.064;2022-12-11T19:46:49;18.83;;;7.20;;
73684;SDS011;61985;51.070;14.064;2022-12-11T19:49:17;19.93;;;7.77;;